Time;durP1;ratioP1;P1;durP2;ratioP2;P2;SDS_P1;SDS_P2;PMS_P1;PMS_P2;Temp;Humidity;BMP_temperature;BMP_pressure;BME280_temperature;BME280_humidity;BME280_pressure;Samples;Min_cycle;Max_cycle;Signal;HPM_P1;HPM_P2
2023/01/05 00:00:23;;;;;;;16.80;3.80;;;11.40;99.90;;;;;;4941719;29;21019;-84
2023/01/05 00:02:49;;;;;;;12.20;2.97;;;;;;;;;;4958440;29;20189;-84
2023/01/05 00:05:15;;;;;;;7.18;2.97;;;;;;;;;;4944092;28;20599;-85
2023/01/05 00:07:42;;;;;;;11.13;2.40;;;11.30;99.90;;;;;;4960778;28;20180;-85
2023/01/05 00:22:29;;;;;;;9.93;2.95;;;;;;;;;;4960726;28;21191;-85
2023/01/05 00:23:57;;;;;;;10.57;3.38;;;11.20;99.90;;;;;;4963070;28;20208;-86
2023/01/05 00:26:23;;;;;;;11.00;3.10;;;11.20;99.90;;;;;;4959993;28;20192;-86
2023/01/05 00:28:49;;;;;;;11.07;2.90;;;;;;;;;;4944294;28;20187;-85
2023/01/05 00:31:15;;;;;;;14.00;3.13;;;11.20;99.90;;;;;;4959892;28;20188;-86
2023/01/05 00:33:40;;;;;;;14.43;3.60;;;11.20;99.90;;;;;;4977837;28;20767;-86
2023/01/05 00:36:10;;;;;;;12.00;2.80;;;11.20;99.90;;;;;;4977461;28;20655;-86
2023/01/05 00:38:35;;;;;;;14.90;2.55;;;11.20;99.90;;;;;;4960014;28;20656;-87
2023/01/05 00:41:01;;;;;;;12.50;3.03;;;11.20;99.90;;;;;;4959901;28;20215;-86
2023/01/05 00:43:26;;;;;;;10.30;2.97;;;11.10;99.90;;;;;;4959950;28;20238;-85
2023/01/05 00:45:52;;;;;;;11.83;3.50;;;11.20;99.90;;;;;;4959966;28;20188;-86
2023/01/05 00:48:17;;;;;;;20.10;3.70;;;11.10;99.90;;;;;;4977537;28;20180;-86
2023/01/05 00:50:45;;;;;;;15.93;3.43;;;11.20;99.90;;;;;;4960000;28;20195;-86
2023/01/05 00:53:10;;;;;;;16.08;4.28;;;11.10;99.90;;;;;;4977018;28;20227;-86
2023/01/05 00:55:36;;;;;;;13.77;3.33;;;11.10;99.90;;;;;;4976982;28;20192;-86
2023/01/05 00:58:02;;;;;;;20.13;4.00;;;11.10;99.90;;;;;;4959448;28;20265;-86
2023/01/05 01:00:28;;;;;;;11.10;3.00;;;;;;;;;;4977229;28;20208;-86
2023/01/05 01:02:53;;;;;;;11.50;3.57;;;;;;;;;;4943179;28;20187;-85
2023/01/05 01:05:19;;;;;;;14.73;3.63;;;11.10;99.90;;;;;;4943383;28;20570;-86
2023/01/05 01:07:47;;;;;;;20.77;3.40;;;11.10;99.90;;;;;;4959753;28;20442;-85
2023/01/05 01:10:13;;;;;;;16.20;3.42;;;;;;;;;;4976546;28;20180;-85
2023/01/05 01:12:39;;;;;;;16.47;3.30;;;11.10;99.90;;;;;;4976235;28;20187;-86
2023/01/05 01:15:05;;;;;;;16.23;3.33;;;11.10;99.90;;;;;;4959289;28;20477;-85
2023/01/05 01:17:31;;;;;;;12.23;3.35;;;11.10;99.90;;;;;;4959152;28;20180;-84
2023/01/05 01:19:57;;;;;;;15.40;3.30;;;11.10;99.90;;;;;;4958667;28;20212;-86
2023/01/05 01:22:22;;;;;;;17.93;3.97;;;11.10;99.90;;;;;;4943390;28;20192;-86
2023/01/05 01:24:48;;;;;;;14.50;3.23;;;;;;;;;;4959010;28;20192;-86
2023/01/05 01:27:14;;;;;;;13.77;3.22;;;11.10;99.90;;;;;;4958666;28;20228;-86
2023/01/05 01:29:40;;;;;;;18.67;3.30;;;;;;;;;;4943172;28;20188;-85
2023/01/05 01:32:07;;;;;;;16.23;3.70;;;;;;;;;;4958782;28;20279;-86
2023/01/05 01:34:32;;;;;;;7.78;2.80;;;11.10;99.90;;;;;;4959224;28;20420;-86
2023/01/05 01:36:59;;;;;;;11.37;3.10;;;;;;;;;;4942858;28;20640;-85
2023/01/05 01:39:25;;;;;;;13.88;4.10;;;;;;;;;;4959135;28;20176;-85
2023/01/05 01:41:50;;;;;;;18.50;3.90;;;11.10;99.90;;;;;;4976123;28;20568;-86
2023/01/05 01:44:35;;;;;;;12.43;2.90;;;;;;;;;;4958830;28;20514;-86
2023/01/05 01:47:00;;;;;;;11.80;3.05;;;11.10;99.90;;;;;;4958399;28;20188;-86
2023/01/05 01:49:26;;;;;;;14.00;3.53;;;11.10;99.90;;;;;;4943075;28;20202;-86
2023/01/05 01:51:52;;;;;;;19.03;2.97;;;11.00;99.90;;;;;;4942851;28;20242;-86
2023/01/05 01:54:17;;;;;;;12.43;3.77;;;11.10;99.90;;;;;;4975987;28;20180;-86
2023/01/05 01:56:47;;;;;;;11.13;3.63;;;;;;;;;;4976413;28;20254;-85
2023/01/05 01:59:13;;;;;;;20.15;3.22;;;11.10;99.90;;;;;;4957991;28;20187;-85
2023/01/05 02:01:39;;;;;;;14.38;3.13;;;;;;;;;;4942633;28;20367;-86
2023/01/05 02:04:06;;;;;;;22.27;4.78;;;11.10;99.90;;;;;;4958452;28;20327;-86
2023/01/05 02:06:32;;;;;;;11.18;2.85;;;11.10;99.90;;;;;;4958623;28;20227;-84
2023/01/05 02:08:58;;;;;;;21.00;4.37;;;11.10;99.90;;;;;;4975904;28;20562;-85
2023/01/05 02:11:51;;;;;;;14.47;3.70;;;11.10;99.90;;;;;;4958332;28;20180;-86
2023/01/05 02:14:25;;;;;;;14.90;3.45;;;;;;;;;;4975449;28;20262;-86
2023/01/05 02:17:00;;;;;;;13.07;2.70;;;;;;;;;;4958592;28;20258;-86
2023/01/05 02:19:29;;;;;;;7.28;2.78;;;11.10;99.90;;;;;;4975574;28;20176;-84
2023/01/05 02:22:14;;;;;;;10.85;3.60;;;;;;;;;;4958256;28;20227;-86
2023/01/05 02:24:59;;;;;;;24.02;4.85;;;11.10;99.90;;;;;;4958406;28;20176;-86
2023/01/05 02:27:43;;;;;;;10.38;3.50;;;;;;;;;;4945433;28;20196;-86
2023/01/05 02:30:29;;;;;;;18.80;3.30;;;;;;;;;;4958340;28;20192;-86
2023/01/05 02:33:16;;;;;;;15.25;3.40;;;;;;;;;;4958273;28;20176;-85
2023/01/05 02:36:03;;;;;;;17.90;3.33;;;11.10;99.90;;;;;;4958396;28;20342;-86
2023/01/05 02:38:34;;;;;;;19.83;4.28;;;11.00;99.90;;;;;;4975527;28;20164;-86
2023/01/05 02:41:10;;;;;;;19.17;3.55;;;11.10;99.90;;;;;;4960215;28;20315;-85
2023/01/05 02:43:35;;;;;;;15.77;4.15;;;11.10;99.90;;;;;;4958927;28;20190;-86
2023/01/05 02:46:01;;;;;;;15.10;4.20;;;11.00;99.90;;;;;;4958573;28;20184;-85
2023/01/05 02:48:27;;;;;;;18.97;3.07;;;11.00;99.90;;;;;;4958693;28;20573;-86
2023/01/05 02:51:07;;;;;;;13.83;3.17;;;11.10;99.90;;;;;;4975725;28;20198;-85
2023/01/05 02:53:44;;;;;;;15.00;3.58;;;11.10;99.90;;;;;;4975069;28;20404;-85
2023/01/05 02:56:36;;;;;;;15.10;2.88;;;11.00;99.90;;;;;;4958006;28;20199;-85
2023/01/05 02:59:15;;;;;;;16.27;3.67;;;11.00;99.90;;;;;;4975296;28;20259;-85
2023/01/05 03:01:48;;;;;;;18.63;3.97;;;11.00;99.90;;;;;;4958193;28;20342;-84
2023/01/05 03:04:31;;;;;;;13.57;3.63;;;11.00;99.90;;;;;;4974661;28;20499;-85
2023/01/05 03:07:02;;;;;;;13.85;4.05;;;11.00;99.90;;;;;;4975044;28;20689;-85
2023/01/05 03:09:35;;;;;;;18.98;4.15;;;11.00;99.90;;;;;;4958289;28;20180;-85
2023/01/05 03:15:19;;;;;;;16.23;3.70;;;11.00;99.90;;;;;;4975011;28;20172;-85
2023/01/05 03:17:51;;;;;;;20.25;3.65;;;;;;;;;;4975450;28;20635;-85
2023/01/05 03:20:20;;;;;;;14.32;3.20;;;11.00;99.90;;;;;;4974446;28;20188;-84
2023/01/05 03:37:09;;;;;;;16.63;4.68;;;10.90;99.90;;;;;;4978507;28;20668;-85
2023/01/05 03:39:39;;;;;;;13.85;4.00;;;11.00;99.90;;;;;;4978507;28;20188;-85
2023/01/05 03:42:08;;;;;;;18.13;3.70;;;11.00;99.90;;;;;;4978119;28;20599;-85
2023/01/05 03:44:37;;;;;;;18.60;4.00;;;10.90;99.90;;;;;;4960859;28;20239;-84
2023/01/05 03:47:03;;;;;;;19.25;4.78;;;11.00;99.90;;;;;;4978012;28;20183;-85
2023/01/05 03:49:29;;;;;;;17.80;3.53;;;;;;;;;;4929106;28;20184;-85
2023/01/05 03:51:55;;;;;;;12.75;3.45;;;;;;;;;;4978497;28;20614;-85
2023/01/05 03:54:20;;;;;;;13.83;3.50;;;10.90;99.90;;;;;;4960710;28;20234;-84
2023/01/05 03:56:46;;;;;;;17.93;3.07;;;;;;;;;;4944504;28;20439;-85
2023/01/05 03:59:12;;;;;;;16.60;3.90;;;;;;;;;;4960464;28;20184;-85
2023/01/05 04:01:38;;;;;;;24.93;3.87;;;10.90;99.90;;;;;;4960603;28;20467;-85
2023/01/05 04:04:03;;;;;;;16.90;4.03;;;11.00;99.90;;;;;;4944372;28;20419;-85
2023/01/05 04:06:29;;;;;;;18.60;4.40;;;11.00;99.90;;;;;;4944392;28;20287;-85
2023/01/05 04:08:54;;;;;;;20.17;3.93;;;10.90;99.90;;;;;;4977409;28;20616;-84
2023/01/05 04:11:21;;;;;;;8.60;2.67;;;;;;;;;;4944134;28;20192;-85
2023/01/05 04:13:47;;;;;;;20.70;4.35;;;;;;;;;;4960158;28;20180;-85
2023/01/05 04:16:13;;;;;;;26.30;4.90;;;;;;;;;;4944305;28;20279;-85
2023/01/05 04:18:39;;;;;;;21.10;3.60;;;10.80;99.90;;;;;;4960328;28;20762;-85
2023/01/05 04:21:05;;;;;;;16.87;3.90;;;;;;;;;;4943704;28;20479;-85
2023/01/05 04:23:32;;;;;;;22.88;4.50;;;;;;;;;;4959841;28;20541;-85
2023/01/05 04:25:58;;;;;;;21.98;4.18;;;;;;;;;;4943705;28;20192;-85
2023/01/05 04:28:24;;;;;;;14.60;3.80;;;;;;;;;;4959462;28;20195;-85
2023/01/05 04:30:51;;;;;;;15.88;3.47;;;11.00;99.90;;;;;;4944414;28;20435;-85
2023/01/05 04:33:17;;;;;;;13.82;3.97;;;;;;;;;;4959774;28;20188;-85
2023/01/05 04:35:43;;;;;;;18.95;4.25;;;10.90;99.90;;;;;;4976896;28;20177;-85
2023/01/05 04:38:09;;;;;;;16.67;3.43;;;10.90;99.90;;;;;;4959443;28;20192;-85
2023/01/05 04:40:34;;;;;;;17.87;3.97;;;10.80;99.90;;;;;;4943817;28;20243;-84
2023/01/05 04:43:00;;;;;;;14.40;3.50;;;;;;;;;;4959848;28;20181;-85
2023/01/05 04:45:26;;;;;;;16.77;3.97;;;;;;;;;;4959332;28;20195;-85
2023/01/05 04:47:52;;;;;;;20.93;4.33;;;;;;;;;;4943980;28;20785;-85
2023/01/05 04:50:18;;;;;;;21.97;3.70;;;;;;;;;;4959048;28;20515;-84
2023/01/05 04:52:44;;;;;;;23.63;4.40;;;10.90;99.90;;;;;;4976486;28;20415;-85
2023/01/05 04:55:10;;;;;;;25.00;4.40;;;;;;;;;;4976291;28;20841;-85
2023/01/05 04:57:36;;;;;;;18.98;4.40;;;10.80;99.90;;;;;;4976506;28;20644;-85
2023/01/05 05:00:02;;;;;;;23.53;3.97;;;;;;;;;;4943382;28;20220;-85
2023/01/05 05:02:28;;;;;;;27.75;4.65;;;;;;;;;;4976306;28;20176;-85
2023/01/05 05:04:54;;;;;;;17.47;4.40;;;10.80;99.90;;;;;;4975807;28;20182;-83
2023/01/05 05:07:20;;;;;;;26.87;3.50;;;;;;;;;;4958802;28;20420;-84
2023/01/05 05:09:46;;;;;;;16.83;3.57;;;;;;;;;;4942875;28;20597;-85
2023/01/05 05:12:12;;;;;;;21.53;3.83;;;;;;;;;;4958733;28;20418;-84
2023/01/05 05:14:38;;;;;;;22.75;3.75;;;;;;;;;;4942908;28;20439;-84
2023/01/05 05:17:04;;;;;;;21.77;5.35;;;;;;;;;;4943241;28;20188;-85
2023/01/05 05:19:30;;;;;;;17.67;4.13;;;;;;;;;;4975747;28;20181;-85
2023/01/05 05:21:56;;;;;;;21.30;4.97;;;;;;;;;;4975672;28;20208;-85
2023/01/05 05:24:22;;;;;;;30.03;5.70;;;10.80;99.90;;;;;;4958875;28;20184;-84
2023/01/05 05:26:48;;;;;;;22.10;3.50;;;10.80;99.90;;;;;;4958094;28;20533;-84
2023/01/05 05:29:14;;;;;;;25.80;4.73;;;;;;;;;;4958024;28;20191;-84
2023/01/05 05:31:39;;;;;;;24.92;4.95;;;10.80;99.90;;;;;;4954008;28;20219;-85
2023/01/05 05:34:05;;;;;;;22.87;4.93;;;10.80;99.90;;;;;;4938790;28;20565;-85
2023/01/05 05:36:31;;;;;;;17.13;3.37;;;10.70;99.90;;;;;;4953891;28;20223;-84
2023/01/05 05:38:57;;;;;;;23.08;4.38;;;10.70;99.90;;;;;;4971045;28;20198;-85
2023/01/05 05:41:23;;;;;;;18.25;3.65;;;;;;;;;;4953248;28;20227;-84
2023/01/05 05:43:49;;;;;;;15.90;4.18;;;10.70;99.90;;;;;;4957915;28;20614;-85
2023/01/05 05:46:15;;;;;;;20.70;4.03;;;;;;;;;;4975372;28;20195;-85
2023/01/05 05:48:41;;;;;;;19.95;4.20;;;10.70;99.90;;;;;;4959503;28;20420;-85
2023/01/05 05:51:07;;;;;;;17.50;4.10;;;;;;;;;;4958739;28;20539;-85
2023/01/05 05:53:33;;;;;;;17.10;4.97;;;;;;;;;;4957523;28;20184;-85
2023/01/05 05:55:59;;;;;;;14.95;4.05;;;;;;;;;;4957898;28;20442;-85
2023/01/05 05:58:25;;;;;;;26.93;4.73;;;;;;;;;;4958006;28;20196;-85
2023/01/05 06:00:51;;;;;;;24.33;4.53;;;;;;;;;;4975104;28;20478;-85
2023/01/05 06:03:17;;;;;;;21.40;5.45;;;;;;;;;;4958191;28;20454;-85
2023/01/05 06:05:44;;;;;;;18.97;5.07;;;;;;;;;;4957569;28;20666;-85
2023/01/05 06:08:09;;;;;;;27.95;6.00;;;10.70;99.90;;;;;;4957737;28;20510;-84
2023/01/05 06:10:35;;;;;;;28.63;5.17;;;;;;;;;;4958277;28;20331;-85
2023/01/05 06:13:01;;;;;;;34.30;6.70;;;10.70;99.90;;;;;;4975145;28;20180;-84
2023/01/05 06:15:27;;;;;;;19.67;4.50;;;;;;;;;;4941549;28;20431;-85
2023/01/05 06:17:52;;;;;;;15.70;4.00;;;10.70;99.90;;;;;;4957992;28;20184;-84
2023/01/05 06:20:18;;;;;;;19.73;4.43;;;10.70;99.90;;;;;;4957352;28;20883;-84
2023/01/05 06:22:43;;;;;;;17.17;4.10;;;10.70;99.90;;;;;;4941636;28;20191;-85
2023/01/05 06:25:10;;;;;;;24.37;4.10;;;;;;;;;;4941334;28;20210;-85
2023/01/05 06:27:35;;;;;;;17.25;4.07;;;10.70;99.90;;;;;;4941898;28;20185;-85
2023/01/05 06:30:01;;;;;;;17.67;3.93;;;;;;;;;;4957476;28;20190;-84
2023/01/05 06:32:27;;;;;;;24.50;4.53;;;10.70;99.90;;;;;;4970774;28;21015;-84
2023/01/05 06:34:52;;;;;;;28.93;5.50;;;10.70;99.90;;;;;;4937003;28;20258;-84
2023/01/05 06:37:19;;;;;;;21.67;4.53;;;;;;;;;;4941467;28;20192;-84
2023/01/05 06:39:44;;;;;;;18.70;4.22;;;10.70;99.90;;;;;;4958013;28;20191;-84
2023/01/05 06:42:10;;;;;;;21.77;5.03;;;10.70;99.90;;;;;;4957502;28;20180;-84
2023/01/05 06:44:36;;;;;;;16.60;3.83;;;10.70;99.90;;;;;;4957344;28;20181;-85
2023/01/05 06:47:01;;;;;;;21.87;5.27;;;10.60;99.90;;;;;;4957493;28;20583;-85
2023/01/05 06:49:27;;;;;;;21.93;4.63;;;;;;;;;;4941238;28;20259;-84
2023/01/05 06:51:53;;;;;;;15.80;4.50;;;10.10;99.90;;;;;;4957889;28;20618;-84
2023/01/05 06:54:19;;;;;;;16.50;5.53;;;10.60;99.90;;;;;;4974897;28;20408;-84
2023/01/05 06:56:45;;;;;;;28.93;4.77;;;;;;;;;;4941471;28;20485;-85
2023/01/05 06:59:11;;;;;;;24.30;4.57;;;;;;;;;;4941806;28;20184;-85
2023/01/05 07:01:38;;;;;;;21.88;5.20;;;;;;;;;;4957290;28;20459;-85
2023/01/05 07:04:04;;;;;;;20.85;4.55;;;;;;;;;;4974606;28;20176;-85
2023/01/05 07:06:30;;;;;;;20.75;3.80;;;;;;;;;;4977801;28;20227;-84
2023/01/05 07:08:56;;;;;;;21.27;4.78;;;10.70;99.90;;;;;;4961596;28;20191;-85
2023/01/05 07:11:21;;;;;;;17.60;3.97;;;10.70;99.90;;;;;;4944893;28;20625;-85
2023/01/05 07:13:49;;;;;;;26.93;5.57;;;;;;;;;;4945500;28;20188;-85
2023/01/05 07:16:15;;;;;;;18.02;4.35;;;;;;;;;;4960960;28;20213;-85
2023/01/05 07:18:41;;;;;;;17.45;5.07;;;;;;;;;;4961101;28;20460;-85
2023/01/05 07:21:07;;;;;;;26.70;5.33;;;;;;;;;;4960830;28;20247;-84
2023/01/05 07:23:36;;;;;;;17.37;4.67;;;;;;;;;;4977992;28;20526;-85
2023/01/05 07:26:02;;;;;;;24.30;4.32;;;;;;;;;;4978336;28;20419;-84
2023/01/05 07:28:28;;;;;;;22.13;4.65;;;;;;;;;;4961043;28;20212;-80
2023/01/05 07:30:54;;;;;;;24.40;4.17;;;;;;;;;;4962134;28;20191;-81
2023/01/05 07:33:20;;;;;;;25.80;4.50;;;;;;;;;;4975759;28;20502;-81
2023/01/05 07:35:46;;;;;;;23.63;5.35;;;10.70;99.90;;;;;;4955452;28;20184;-81
2023/01/05 07:38:12;;;;;;;18.53;3.80;;;;;;;;;;4944621;28;20199;-80
2023/01/05 07:40:38;;;;;;;22.40;4.75;;;;;;;;;;4978552;28;20211;-80
2023/01/05 07:43:04;;;;;;;24.05;4.75;;;;;;;;;;4961452;28;20191;-80
2023/01/05 07:45:30;;;;;;;20.58;4.22;;;;;;;;;;4961070;28;20217;-80
2023/01/05 07:47:56;;;;;;;23.42;5.50;;;;;;;;;;4961695;28;20179;-80
2023/01/05 07:50:22;;;;;;;21.17;4.70;;;;;;;;;;4978570;28;20267;-80
2023/01/05 07:52:48;;;;;;;24.35;3.97;;;10.70;99.90;;;;;;4978788;28;20422;-80
2023/01/05 07:55:13;;;;;;;24.00;6.50;;;10.70;99.90;;;;;;4961487;28;20188;-81
2023/01/05 07:57:39;;;;;;;15.17;4.10;;;10.70;99.90;;;;;;4945257;28;20181;-80
2023/01/05 08:00:06;;;;;;;23.47;5.00;;;10.70;99.90;;;;;;4945539;28;20176;-80
2023/01/05 08:02:32;;;;;;;18.30;4.55;;;;;;;;;;4977747;28;20202;-80
2023/01/05 08:04:58;;;;;;;23.83;5.50;;;10.70;99.90;;;;;;4960181;28;20217;-80
2023/01/05 08:07:24;;;;;;;24.35;5.45;;;10.70;99.90;;;;;;4960746;28;20195;-80
2023/01/05 08:15:35;;;;;;;23.05;5.50;;;;;;;;;;4961604;28;20207;-80
2023/01/05 08:18:00;;;;;;;21.97;4.50;;;10.70;99.90;;;;;;4943914;28;20630;-81
2023/01/05 08:20:26;;;;;;;21.37;5.37;;;10.70;99.90;;;;;;4960176;28;20476;-80
2023/01/05 08:22:52;;;;;;;36.70;5.33;;;10.60;99.90;;;;;;4944287;28;20587;-80
2023/01/05 08:25:18;;;;;;;23.15;4.40;;;;;;;;;;4943999;28;20195;-81
2023/01/05 08:27:44;;;;;;;29.85;5.05;;;10.70;99.90;;;;;;4960581;28;20708;-81
2023/01/05 08:30:11;;;;;;;21.20;4.72;;;10.80;99.90;;;;;;4977535;28;20211;-81
2023/01/05 08:32:37;;;;;;;27.42;5.20;;;10.80;99.90;;;;;;4977453;28;20188;-81
2023/01/05 08:35:03;;;;;;;17.02;4.60;;;10.70;99.90;;;;;;4944445;28;20211;-81
2023/01/05 08:37:29;;;;;;;37.80;5.50;;;10.70;99.90;;;;;;4943672;28;20218;-81
2023/01/05 08:39:55;;;;;;;24.73;4.97;;;;;;;;;;4928032;28;20773;-81
2023/01/05 08:42:21;;;;;;;23.88;4.40;;;;;;;;;;4977228;28;20195;-81
2023/01/05 08:44:46;;;;;;;25.97;5.30;;;10.60;99.90;;;;;;4944042;28;20192;-81
2023/01/05 08:47:12;;;;;;;21.63;5.10;;;10.80;99.90;;;;;;4928219;28;20431;-80
2023/01/05 08:49:37;;;;;;;19.93;4.77;;;10.80;99.90;;;;;;4944051;28;20287;-81
2023/01/05 08:52:03;;;;;;;29.00;5.57;;;10.80;99.90;;;;;;4944304;28;20527;-80
2023/01/05 08:54:29;;;;;;;27.57;5.07;;;10.80;99.90;;;;;;4943188;28;20184;-80
2023/01/05 08:56:54;;;;;;;17.20;4.40;;;10.80;99.90;;;;;;4959781;28;20188;-81
2023/01/05 08:59:20;;;;;;;24.30;4.70;;;10.80;99.90;;;;;;4959371;28;20180;-80
2023/01/05 09:01:46;;;;;;;28.87;5.60;;;10.80;99.90;;;;;;4977053;28;20216;-80
2023/01/05 09:04:11;;;;;;;21.27;4.93;;;10.90;99.90;;;;;;4960060;28;20191;-80
2023/01/05 09:06:37;;;;;;;33.37;5.40;;;10.80;99.90;;;;;;4943433;28;20224;-80
2023/01/05 09:09:03;;;;;;;32.73;6.47;;;10.80;99.90;;;;;;4927795;28;20184;-80
2023/01/05 09:11:29;;;;;;;20.13;5.03;;;10.80;99.90;;;;;;4959598;28;20187;-80
2023/01/05 09:14:00;;;;;;;25.80;5.80;;;;;;;;;;4943588;28;20196;-83
2023/01/05 09:16:28;;;;;;;29.13;5.95;;;10.90;99.90;;;;;;4976228;28;20172;-82
2023/01/05 09:18:56;;;;;;;26.48;4.95;;;10.90;99.90;;;;;;4976445;28;20200;-81
2023/01/05 09:21:21;;;;;;;25.70;6.47;;;10.90;99.90;;;;;;4975531;28;20204;-83
2023/01/05 09:23:47;;;;;;;24.67;4.77;;;;;;;;;;4926906;28;20189;-82
2023/01/05 09:26:14;;;;;;;32.58;5.68;;;;;;;;;;4958600;28;20185;-82
2023/01/05 09:28:41;;;;;;;35.35;6.60;;;;;;;;;;4957521;28;20220;-82
2023/01/05 09:31:25;;;;;;;28.20;5.35;;;;;;;;;;4958927;28;20219;-82
2023/01/05 09:33:51;;;;;;;26.70;5.15;;;;;;;;;;4975868;28;20200;-82
2023/01/05 09:36:18;;;;;;;26.03;5.90;;;;;;;;;;4975545;28;20608;-82
2023/01/05 09:38:48;;;;;;;39.67;6.25;;;;;;;;;;4957977;28;20452;-82
2023/01/05 09:41:46;;;;;;;23.95;5.28;;;;;;;;;;4976090;28;20755;-82
2023/01/05 09:44:27;;;;;;;21.67;4.90;;;11.00;99.90;;;;;;4942265;28;20193;-82
2023/01/05 09:46:54;;;;;;;29.10;6.72;;;11.10;99.90;;;;;;4958295;28;20194;-82
2023/01/05 09:49:22;;;;;;;28.92;5.30;;;;;;;;;;4957876;28;20177;-82
2023/01/05 09:51:50;;;;;;;23.63;5.65;;;;;;;;;;4958001;28;20211;-82
2023/01/05 09:54:17;;;;;;;26.83;5.15;;;;;;;;;;4975605;28;20175;-81
2023/01/05 09:56:45;;;;;;;21.13;4.68;;;;;;;;;;4957955;28;20215;-82
2023/01/05 09:59:17;;;;;;;23.05;5.82;;;;;;;;;;4958164;28;20212;-81
2023/01/05 10:01:46;;;;;;;22.45;4.95;;;11.00;99.90;;;;;;4957486;28;20212;-82
2023/01/05 10:04:19;;;;;;;19.08;5.13;;;11.10;99.90;;;;;;4958064;28;20215;-82
2023/01/05 10:06:49;;;;;;;20.42;5.75;;;11.20;99.90;;;;;;4957599;28;20755;-83
2023/01/05 10:09:27;;;;;;;24.77;4.60;;;11.10;99.90;;;;;;4975344;28;20625;-82
2023/01/05 10:15:02;;;;;;;24.38;5.72;;;11.20;99.90;;;;;;4975054;28;20215;-82
2023/01/05 10:17:32;;;;;;;24.38;6.15;;;11.30;99.90;;;;;;4957708;28;20259;-82
2023/01/05 10:19:58;;;;;;;28.55;6.28;;;;;;;;;;4975078;28;20180;-82
2023/01/05 10:22:24;;;;;;;33.23;5.90;;;;;;;;;;4957715;28;20184;-82
2023/01/05 10:25:05;;;;;;;16.87;4.60;;;11.50;99.90;;;;;;4957886;28;20817;-81
2023/01/05 10:27:47;;;;;;;36.17;6.30;;;;;;;;;;4957988;28;20451;-82
2023/01/05 10:30:17;;;;;;;19.63;4.38;;;;;;;;;;4975078;28;20213;-82
2023/01/05 10:32:58;;;;;;;25.50;5.43;;;;;;;;;;4974701;28;20558;-82
2023/01/05 10:35:51;;;;;;;30.60;5.97;;;11.70;99.90;;;;;;4957790;28;20212;-83
2023/01/05 10:38:26;;;;;;;21.10;4.45;;;;;;;;;;4975323;28;20546;-82
2023/01/05 10:41:11;;;;;;;18.83;5.33;;;11.70;99.90;;;;;;4959562;28;20219;-82
2023/01/05 10:44:01;;;;;;;27.00;5.00;;;11.70;99.90;;;;;;4979049;28;20431;-82
2023/01/05 10:46:26;;;;;;;19.38;5.30;;;11.70;99.90;;;;;;4978445;28;20185;-83
2023/01/05 10:48:53;;;;;;;27.53;5.90;;;;;;;;;;4930035;28;20190;-82
2023/01/05 10:51:19;;;;;;;21.77;5.00;;;11.80;99.90;;;;;;4945267;28;20275;-82
2023/01/05 10:53:45;;;;;;;29.33;6.28;;;11.80;99.90;;;;;;4960859;28;20187;-82
2023/01/05 10:56:22;;;;;;;19.60;5.13;;;11.80;99.90;;;;;;4945489;28;20562;-83
2023/01/05 10:58:47;;;;;;;19.67;5.00;;;11.90;99.90;;;;;;4960727;28;20435;-82
2023/01/05 11:01:29;;;;;;;23.77;4.83;;;11.90;99.90;;;;;;4961199;28;20298;-82
2023/01/05 11:04:01;;;;;;;18.42;5.00;;;;;;;;;;4978497;28;20200;-82
2023/01/05 11:06:31;;;;;;;18.63;4.10;;;11.90;99.90;;;;;;4960546;28;20624;-83
2023/01/05 11:09:17;;;;;;;20.50;5.80;;;11.90;99.90;;;;;;4960752;28;20634;-82
2023/01/05 11:11:51;;;;;;;16.50;3.50;;;11.90;99.90;;;;;;4960843;28;20467;-82
2023/01/05 11:14:17;;;;;;;14.30;3.67;;;;;;;;;;4960816;28;20191;-82
2023/01/05 11:16:51;;;;;;;18.10;4.30;;;;;;;;;;4960636;28;20514;-82
2023/01/05 11:19:22;;;;;;;23.20;4.70;;;11.90;99.90;;;;;;4960716;28;20422;-80
2023/01/05 11:21:47;;;;;;;21.80;4.70;;;12.00;99.90;;;;;;4977461;28;20442;-82
2023/01/05 11:24:28;;;;;;;28.20;5.40;;;;;;;;;;4944724;28;20438;-83
2023/01/05 11:26:54;;;;;;;12.80;3.60;;;;;;;;;;4960261;28;20200;-81
2023/01/05 11:29:20;;;;;;;21.73;4.50;;;11.90;99.90;;;;;;4960541;28;20310;-81
2023/01/05 11:31:53;;;;;;;24.00;5.83;;;;;;;;;;4960576;28;20428;-81
2023/01/05 11:34:18;;;;;;;16.93;4.20;;;;;;;;;;4960987;28;20412;-80
2023/01/05 11:37:00;;;;;;;23.63;6.50;;;12.20;99.90;;;;;;4960424;28;20463;-82
2023/01/05 11:39:38;;;;;;;25.27;4.00;;;;;;;;;;4960259;28;20423;-81
2023/01/05 11:42:18;;;;;;;18.50;5.10;;;12.30;99.90;;;;;;4977397;28;20544;-81
2023/01/05 11:44:51;;;;;;;22.37;5.97;;;12.80;99.90;;;;;;4959747;28;20928;-81
2023/01/05 11:47:38;;;;;;;21.73;3.87;;;;;;;;;;4960194;28;20416;-82
2023/01/05 11:50:06;;;;;;;18.43;3.73;;;;;;;;;;4977062;28;20419;-83
2023/01/05 11:52:34;;;;;;;16.10;3.63;;;;;;;;;;4975434;28;20403;-82
2023/01/05 11:55:16;;;;;;;18.03;4.37;;;;;;;;;;4977420;28;20486;-82
2023/01/05 11:57:42;;;;;;;16.40;4.10;;;;;;;;;;4959447;28;20407;-84
2023/01/05 12:00:25;;;;;;;23.53;4.97;;;13.80;99.90;;;;;;4944202;28;20423;-84
2023/01/05 12:03:03;;;;;;;13.83;3.87;;;14.10;99.90;;;;;;4959668;28;20438;-84
2023/01/05 12:05:38;;;;;;;18.83;4.23;;;14.10;99.90;;;;;;4959372;28;20471;-83
2023/01/05 12:08:44;;;;;;;12.43;3.43;;;14.20;99.90;;;;;;4976994;28;20425;-83
2023/01/05 12:11:15;;;;;;;17.63;4.40;;;;;;;;;;4927234;29;20428;-83
2023/01/05 12:13:59;;;;;;;21.27;4.80;;;13.60;99.90;;;;;;4940298;29;20908;-83
2023/01/05 12:16:42;;;;;;;18.00;5.40;;;13.30;99.90;;;;;;4940331;29;20428;-83
2023/01/05 12:19:11;;;;;;;19.40;5.50;;;13.20;99.90;;;;;;4939938;29;20521;-84
2023/01/05 12:21:38;;;;;;;13.63;4.17;;;13.10;99.90;;;;;;4939697;29;20810;-84
2023/01/05 12:24:47;;;;;;;17.67;3.77;;;13.40;99.90;;;;;;4957474;29;20413;-83
2023/01/05 12:27:13;;;;;;;13.97;4.13;;;;;;;;;;4940000;29;20527;-83
2023/01/05 12:29:54;;;;;;;20.67;4.00;;;13.50;99.90;;;;;;4939531;29;20504;-83
2023/01/05 12:32:35;;;;;;;23.07;3.60;;;13.40;99.90;;;;;;4957175;29;20420;-83
2023/01/05 12:35:22;;;;;;;18.00;4.23;;;13.40;99.90;;;;;;4940356;29;20421;-84
2023/01/05 12:38:25;;;;;;;18.00;5.07;;;13.30;99.90;;;;;;4956530;29;20491;-84
2023/01/05 12:41:24;;;;;;;18.17;4.60;;;13.30;99.90;;;;;;4939546;29;20880;-83
2023/01/05 12:44:08;;;;;;;16.93;4.90;;;13.30;99.90;;;;;;4956746;29;20405;-83
2023/01/05 12:47:09;;;;;;;20.63;5.30;;;13.40;99.90;;;;;;4939760;29;20428;-84
2023/01/05 12:49:56;;;;;;;21.33;5.33;;;13.40;99.90;;;;;;4924457;29;20439;-84
2023/01/05 12:52:43;;;;;;;17.77;3.83;;;13.40;99.90;;;;;;4956650;29;20415;-84
2023/01/05 12:55:15;;;;;;;20.20;4.37;;;13.30;99.90;;;;;;4939392;29;20535;-84
2023/01/05 12:57:57;;;;;;;16.77;4.73;;;13.30;99.90;;;;;;4956501;29;20416;-82
2023/01/05 13:00:24;;;;;;;22.57;4.20;;;13.20;99.90;;;;;;4939668;29;20475;-83
2023/01/05 13:02:53;;;;;;;22.80;4.90;;;13.10;99.90;;;;;;4956294;28;20431;-85
2023/01/05 13:05:33;;;;;;;21.03;4.13;;;13.30;99.90;;;;;;4939179;29;20480;-83
2023/01/05 13:08:23;;;;;;;16.63;4.57;;;13.40;99.90;;;;;;4939043;29;20425;-83
2023/01/05 13:11:14;;;;;;;17.93;5.10;;;13.40;99.90;;;;;;4939396;29;20436;-84
2023/01/05 13:13:50;;;;;;;14.80;4.70;;;13.30;99.90;;;;;;4960457;29;20416;-83
2023/01/05 13:16:16;;;;;;;18.73;4.13;;;;;;;;;;4939542;29;20424;-83
2023/01/05 13:18:49;;;;;;;15.37;4.23;;;13.40;99.90;;;;;;4958015;29;20405;-84
2023/01/05 13:21:16;;;;;;;19.30;4.87;;;13.50;99.90;;;;;;4956639;29;20456;-83
2023/01/05 13:24:08;;;;;;;22.00;4.67;;;13.70;99.90;;;;;;4938935;29;20420;-84
2023/01/05 13:26:35;;;;;;;21.90;4.07;;;13.80;99.90;;;;;;4934795;29;20439;-83
2023/01/05 13:29:01;;;;;;;17.40;4.13;;;13.70;99.90;;;;;;4938902;29;20780;-83
2023/01/05 13:32:14;;;;;;;31.63;5.73;;;13.60;99.90;;;;;;4938812;29;20448;-84
2023/01/05 13:35:12;;;;;;;24.93;5.27;;;13.30;99.90;;;;;;4955828;29;20393;-84
2023/01/05 13:38:21;;;;;;;15.80;5.40;;;13.00;99.90;;;;;;4964683;28;20424;-83
2023/01/05 13:41:09;;;;;;;30.37;5.47;;;12.80;99.90;;;;;;4938472;29;20467;-83
2023/01/05 13:43:47;;;;;;;25.60;4.70;;;12.60;99.90;;;;;;4955257;29;20492;-85
2023/01/05 13:46:40;;;;;;;20.97;4.80;;;12.40;99.90;;;;;;4938695;29;20519;-84
2023/01/05 13:49:29;;;;;;;20.30;5.30;;;12.40;99.90;;;;;;4955740;29;20483;-87
2023/01/05 13:51:56;;;;;;;20.00;4.43;;;12.30;99.90;;;;;;4954651;29;20440;-86
2023/01/05 13:54:43;;;;;;;19.37;4.87;;;;;;;;;;4955381;29;20415;-83
2023/01/05 13:57:14;;;;;;;35.50;5.73;;;12.20;99.90;;;;;;4955711;29;20487;-84
2023/01/05 13:59:41;;;;;;;22.23;4.37;;;12.20;99.90;;;;;;4954590;29;20409;-84
2023/01/05 14:02:28;;;;;;;20.33;5.07;;;12.20;99.90;;;;;;4922713;29;20834;-83
2023/01/05 14:04:54;;;;;;;29.60;5.37;;;12.20;99.90;;;;;;4955205;29;20458;-84
2023/01/05 14:07:20;;;;;;;15.80;4.20;;;12.20;99.90;;;;;;4954519;29;20487;-84
2023/01/05 14:09:50;;;;;;;20.00;4.77;;;12.10;99.90;;;;;;4938181;29;20413;-84
2023/01/05 14:12:15;;;;;;;20.57;4.80;;;12.20;99.90;;;;;;4938193;29;20519;-84